Francoise Gilot — V2DH3 — position and weather

sailwx.info

Track history (hours):
 
Tides and Currents Weather Stations Pressure Air Temp Water Temp Dewpoint Dewpoint Depression Visibility Wind Speed Wind Dir Waves Ship Positions

Francoise Gilot

Last reported at 2017-Nov-11 02:24 UTC. Time now 2017-Nov-21 01:05 UTC.
Position N 23°51' W 016°53'.
Warning: this ship's position is 9 days out of date.

Length 161 m; draft 9.5 m.

Type: Ship (hazmat cat A). MMSI: 305213000.

Date/timePositionNaut miles runAvg speedWind from/ knotsBaromVisibWave heightAir tempDewpointWater temp
2017-Nov-11 02:24N 23°51' W 016°53'24915.0
2017-Nov-10 09:46N 27°44' W 015°17'416.0
2017-Nov-10 09:30N 27°48' W 015°15'815.5
2017-Nov-10 09:01N 27°56' W 015°15'713.3
2017-Nov-10 08:30N 28°02' W 015°19'612.5
2017-Nov-10 08:00N 28°07' W 015°23'3 5.0
2017-Nov-10 07:30N 28°09' W 015°25'0 0.1
2017-Nov-10 06:58N 28°09' W 015°25'0 0.0
2017-Nov-10 06:28N 28°09' W 015°25'0 0.0
2017-Nov-10 05:58N 28°09' W 015°25'0 0.0
2017-Nov-10 05:28N 28°09' W 015°25'0 0.0
2017-Nov-10 04:43N 28°09' W 015°25'0 0.0
2017-Nov-10 04:31N 28°09' W 015°25'0 0.0
2017-Nov-10 04:01N 28°09' W 015°25'0 0.0
2017-Nov-10 03:30N 28°09' W 015°25'0 0.0
2017-Nov-10 03:00N 28°09' W 015°25'0 0.0
2017-Nov-10 02:30N 28°09' W 015°25'0 0.0
2017-Nov-10 02:00N 28°09' W 015°25'0 0.0
2017-Nov-10 01:30N 28°09' W 015°25'0 0.0
2017-Nov-10 01:00N 28°09' W 015°25'0 0.0
2017-Nov-10 00:30N 28°09' W 015°25'0 0.0
2017-Nov-10 00:00N 28°09' W 015°25'0 0.0
2017-Nov-09 23:30N 28°09' W 015°25'0 0.0
2017-Nov-09 23:00N 28°09' W 015°25'0 0.0
2017-Nov-09 22:30N 28°09' W 015°25'0 0.4
2017-Nov-09 22:00N 28°09' W 015°25'3 5.1
2017-Nov-09 21:30N 28°07' W 015°23'1 2.7
2017-Nov-09 21:00N 28°07' W 015°21'0 0.5
2017-Nov-09 20:30N 28°07' W 015°21'0 0.7
2017-Nov-09 20:00N 28°07' W 015°21'0 0.9
2017-Nov-09 19:30N 28°08' W 015°21'0 0.8
2017-Nov-09 19:00N 28°08' W 015°21'0 0.7
2017-Nov-09 18:30N 28°08' W 015°21'0 0.7
2017-Nov-09 18:00N 28°09' W 015°21'1 1.3
2017-Nov-09 17:30N 28°09' W 015°20'611.2
2017-Nov-09 17:00N 28°13' W 015°16'611.2
2017-Nov-09 16:30N 28°17' W 015°12'611.5
2017-Nov-09 16:00N 28°22' W 015°07'612.3
2017-Nov-09 15:30N 28°26' W 015°03'612.7
2017-Nov-09 15:00N 28°31' W 014°58'612.9
2017-Nov-09 14:30N 28°36' W 014°53'612.5
2017-Nov-09 14:00N 28°40' W 014°48'19512.5
2017-Nov-08 22:25N 31°03' W 012°15'2413.0
2017-Nov-08 20:33N 31°21' W 011°56'113.0
2017-Nov-08 20:28N 31°22' W 011°55'38613.0
2017-Nov-07 14:47N 35°42' W 006°13'415.0
2017-Nov-07 14:30N 35°45' W 006°10'815.1
2017-Nov-07 14:00N 35°50' W 006°03'714.3
2017-Nov-07 13:30N 35°54' W 005°56'714.4
2017-Nov-07 13:00N 35°57' W 005°48'815.3
2017-Nov-07 12:30N 35°57' W 005°38'713.1
2017-Nov-07 12:00N 35°56' W 005°30'2 4.9
2017-Nov-07 11:30N 35°54' W 005°29'  
Track history (hours):
 
Tides and Currents Weather Stations Pressure Air Temp Water Temp Dewpoint Dewpoint Depression Visibility Wind Speed Wind Dir Waves Ship Positions

Francoise Gilot

Last reported at 2017-Nov-11 02:24 UTC. Time now 2017-Nov-21 01:05 UTC.
Position N 23°51' W 016°53'.
Warning: this ship's position is 9 days out of date.

Length 161 m; draft 9.5 m.

Type: Ship (hazmat cat A). MMSI: 305213000.

Date/timePositionNaut miles runAvg speedWind from/ knotsBaromVisibWave heightAir tempDewpointWater temp
2017-Nov-11 02:24N 23°51' W 016°53'24915.0
2017-Nov-10 09:46N 27°44' W 015°17'416.0
2017-Nov-10 09:30N 27°48' W 015°15'815.5
2017-Nov-10 09:01N 27°56' W 015°15'713.3
2017-Nov-10 08:30N 28°02' W 015°19'612.5
2017-Nov-10 08:00N 28°07' W 015°23'3 5.0
2017-Nov-10 07:30N 28°09' W 015°25'0 0.1
2017-Nov-10 06:58N 28°09' W 015°25'0 0.0
2017-Nov-10 06:28N 28°09' W 015°25'0 0.0
2017-Nov-10 05:58N 28°09' W 015°25'0 0.0
2017-Nov-10 05:28N 28°09' W 015°25'0 0.0
2017-Nov-10 04:43N 28°09' W 015°25'0 0.0
2017-Nov-10 04:31N 28°09' W 015°25'0 0.0
2017-Nov-10 04:01N 28°09' W 015°25'0 0.0
2017-Nov-10 03:30N 28°09' W 015°25'0 0.0
2017-Nov-10 03:00N 28°09' W 015°25'0 0.0
2017-Nov-10 02:30N 28°09' W 015°25'0 0.0
2017-Nov-10 02:00N 28°09' W 015°25'0 0.0
2017-Nov-10 01:30N 28°09' W 015°25'0 0.0
2017-Nov-10 01:00N 28°09' W 015°25'0 0.0
2017-Nov-10 00:30N 28°09' W 015°25'0 0.0
2017-Nov-10 00:00N 28°09' W 015°25'0 0.0
2017-Nov-09 23:30N 28°09' W 015°25'0 0.0
2017-Nov-09 23:00N 28°09' W 015°25'0 0.0
2017-Nov-09 22:30N 28°09' W 015°25'0 0.4
2017-Nov-09 22:00N 28°09' W 015°25'3 5.1
2017-Nov-09 21:30N 28°07' W 015°23'1 2.7
2017-Nov-09 21:00N 28°07' W 015°21'0 0.5
2017-Nov-09 20:30N 28°07' W 015°21'0 0.7
2017-Nov-09 20:00N 28°07' W 015°21'0 0.9
2017-Nov-09 19:30N 28°08' W 015°21'0 0.8
2017-Nov-09 19:00N 28°08' W 015°21'0 0.7
2017-Nov-09 18:30N 28°08' W 015°21'0 0.7
2017-Nov-09 18:00N 28°09' W 015°21'1 1.3
2017-Nov-09 17:30N 28°09' W 015°20'611.2
2017-Nov-09 17:00N 28°13' W 015°16'611.2
2017-Nov-09 16:30N 28°17' W 015°12'611.5
2017-Nov-09 16:00N 28°22' W 015°07'612.3
2017-Nov-09 15:30N 28°26' W 015°03'612.7
2017-Nov-09 15:00N 28°31' W 014°58'612.9
2017-Nov-09 14:30N 28°36' W 014°53'612.5
2017-Nov-09 14:00N 28°40' W 014°48'19512.5
2017-Nov-08 22:25N 31°03' W 012°15'2413.0
2017-Nov-08 20:33N 31°21' W 011°56'113.0
2017-Nov-08 20:28N 31°22' W 011°55'38613.0
2017-Nov-07 14:47N 35°42' W 006°13'415.0
2017-Nov-07 14:30N 35°45' W 006°10'815.1
2017-Nov-07 14:00N 35°50' W 006°03'714.3
2017-Nov-07 13:30N 35°54' W 005°56'714.4
2017-Nov-07 13:00N 35°57' W 005°48'815.3
2017-Nov-07 12:30N 35°57' W 005°38'713.1
2017-Nov-07 12:00N 35°56' W 005°30'2 4.9
2017-Nov-07 11:30N 35°54' W 005°29'  

Dump ship's entire track history